createdAt,value
2023-05-09T00:00:04.124Z,99.94
2023-05-09T00:01:04.306Z,99.84
2023-05-09T00:02:07.491Z,99.94
2023-05-09T00:03:04.633Z,99.99
2023-05-09T00:04:04.713Z,99.99
2023-05-09T00:05:04.854Z,99.99
2023-05-09T00:06:04.962Z,99.99
2023-05-09T00:07:05.151Z,99.88
2023-05-09T00:08:07.803Z,99.99
2023-05-09T00:09:04.492Z,99.99
2023-05-09T00:10:04.561Z,99.99
2023-05-09T00:11:04.717Z,99.99
2023-05-09T00:12:04.973Z,99.99
2023-05-09T00:13:05.116Z,99.99
2023-05-09T00:14:05.284Z,99.99
2023-05-09T00:15:05.418Z,99.99
2023-05-09T00:16:04.543Z,99.99
2023-05-09T00:17:03.683Z,99.99
2023-05-09T00:18:03.902Z,99.99
2023-05-09T00:19:05.055Z,99.99
2023-05-09T00:20:05.206Z,99.99
2023-05-09T00:21:05.286Z,99.99
2023-05-09T00:22:04.371Z,99.99
2023-05-09T00:23:04.525Z,99.99
2023-05-09T00:24:04.667Z,99.99
2023-05-09T00:25:05.146Z,99.99
2023-05-09T00:26:04.975Z,99.99
2023-05-09T00:27:05.147Z,99.99
2023-05-09T00:28:04.308Z,99.99
2023-05-09T00:29:04.380Z,99.99
2023-05-09T00:30:04.600Z,99.99
2023-05-09T00:31:03.762Z,99.99
2023-05-09T00:32:04.886Z,99.99
2023-05-09T00:33:05.223Z,99.99
2023-05-09T00:34:05.197Z,99.99
2023-05-09T00:35:04.292Z,99.99
2023-05-09T00:36:04.417Z,99.99
2023-05-09T00:37:04.551Z,99.99
2023-05-09T00:38:04.689Z,99.99
2023-05-09T00:39:03.822Z,99.99
2023-05-09T00:40:03.937Z,99.99
2023-05-09T00:41:05.036Z,99.99
2023-05-09T00:42:03.232Z,99.99
2023-05-09T00:43:04.424Z,99.99
2023-05-09T00:44:04.474Z,99.99
2023-05-09T00:45:04.711Z,99.99
2023-05-09T00:46:04.829Z,99.99
2023-05-09T00:47:04.967Z,99.99
2023-05-09T00:48:03.208Z,99.99
2023-05-09T00:49:04.387Z,99.99
2023-05-09T00:50:04.451Z,99.99
2023-05-09T00:51:03.634Z,99.99
2023-05-09T00:52:03.922Z,99.99
2023-05-09T00:53:04.949Z,99.99
2023-05-09T00:54:04.089Z,99.99
2023-05-09T00:55:04.392Z,99.99
2023-05-09T00:56:03.443Z,99.99
2023-05-09T00:57:03.642Z,99.99
2023-05-09T00:58:03.865Z,99.99
2023-05-09T00:59:03.939Z,99.99
2023-05-09T01:00:04.082Z,99.99
2023-05-09T01:01:04.916Z,99.99
2023-05-09T01:02:04.468Z,99.99
2023-05-09T01:03:03.628Z,99.99
2023-05-09T01:04:03.800Z,99.99
2023-05-09T01:05:03.908Z,99.99
2023-05-09T01:06:04.087Z,99.99
2023-05-09T01:07:03.288Z,99.99
2023-05-09T01:08:03.430Z,99.99
2023-05-09T01:09:04.545Z,99.99
2023-05-09T01:10:03.773Z,99.99
2023-05-09T01:11:03.983Z,99.99
2023-05-09T01:12:04.117Z,99.99
2023-05-09T01:13:03.271Z,99.99
2023-05-09T01:14:03.455Z,99.99
2023-05-09T01:15:03.690Z,99.99
2023-05-09T01:16:04.743Z,99.99
2023-05-09T01:17:03.789Z,99.99
2023-05-09T01:18:03.044Z,99.99
2023-05-09T01:19:03.114Z,99.99
2023-05-09T01:20:03.330Z,99.99
2023-05-09T01:21:03.431Z,99.99
2023-05-09T01:22:03.625Z,99.99
2023-05-09T01:23:03.680Z,99.99
2023-05-09T01:24:02.894Z,99.99
2023-05-09T01:25:03.998Z,99.99
2023-05-09T01:26:04.171Z,99.99
2023-05-09T01:27:03.374Z,99.99
2023-05-09T01:28:03.480Z,99.99
2023-05-09T01:29:02.693Z,99.99
2023-05-09T01:30:04.001Z,99.99
2023-05-09T01:31:03.104Z,99.99
2023-05-09T01:32:03.224Z,99.99
2023-05-09T01:33:04.432Z,99.99
2023-05-09T01:34:02.604Z,99.99
2023-05-09T01:35:02.691Z,99.99
2023-05-09T01:36:03.836Z,99.99
2023-05-09T01:37:03.987Z,99.99
2023-05-09T01:38:03.219Z,99.99
2023-05-09T01:39:03.354Z,99.99
2023-05-09T01:40:04.478Z,99.99
2023-05-09T01:41:03.654Z,99.99
2023-05-09T01:42:02.879Z,99.99
2023-05-09T01:43:02.983Z,99.99
2023-05-09T01:44:04.126Z,99.99
2023-05-09T01:45:04.311Z,99.99
2023-05-09T01:46:03.445Z,99.99
2023-05-09T01:47:03.616Z,99.99
2023-05-09T01:48:03.896Z,99.99
2023-05-09T01:49:03.923Z,99.99
2023-05-09T01:50:04.094Z,99.99
2023-05-09T01:51:03.250Z,99.99
2023-05-09T01:52:03.399Z,99.99
2023-05-09T01:53:02.595Z,99.99
2023-05-09T01:54:02.843Z,99.99
2023-05-09T01:55:03.904Z,99.99
2023-05-09T01:56:03.135Z,99.99
2023-05-09T01:57:02.243Z,99.99
2023-05-09T01:58:02.429Z,99.99
2023-05-09T01:59:03.567Z,99.99
2023-05-09T02:00:02.897Z,99.99
2023-05-09T02:01:03.064Z,99.99
2023-05-09T02:02:02.151Z,99.99
2023-05-09T02:03:03.346Z,99.99
2023-05-09T02:04:03.412Z,99.99
2023-05-09T02:05:03.639Z,99.99
2023-05-09T02:06:03.256Z,99.99
2023-05-09T02:07:03.072Z,99.99
2023-05-09T02:08:02.176Z,99.99
2023-05-09T02:09:03.249Z,99.99
2023-05-09T02:10:03.457Z,99.99
2023-05-09T02:11:03.603Z,99.99
2023-05-09T02:12:03.840Z,99.99
2023-05-09T02:13:02.003Z,99.99
2023-05-09T02:14:02.215Z,99.99
2023-05-09T02:15:02.308Z,99.99
2023-05-09T02:16:03.493Z,99.99
2023-05-09T02:17:03.680Z,99.99
2023-05-09T02:18:02.931Z,99.99
2023-05-09T02:19:02.085Z,99.99
2023-05-09T02:20:02.204Z,99.99
2023-05-09T02:21:02.408Z,99.99
2023-05-09T02:22:02.574Z,99.99
2023-05-09T02:23:02.802Z,99.99
2023-05-09T02:24:01.947Z,99.99
2023-05-09T02:25:02.047Z,99.99
2023-05-09T02:26:02.203Z,99.99
2023-05-09T02:27:02.369Z,99.99
2023-05-09T02:28:03.552Z,99.99
2023-05-09T02:29:03.853Z,99.99
2023-05-09T02:30:01.842Z,99.99
2023-05-09T02:31:02.014Z,99.99
2023-05-09T02:32:02.224Z,99.99
2023-05-09T02:33:02.455Z,99.99
2023-05-09T02:34:02.545Z,99.99
2023-05-09T02:35:01.984Z,99.99
2023-05-09T02:36:01.813Z,99.99
2023-05-09T02:37:01.979Z,99.99
2023-05-09T02:38:02.161Z,99.99
2023-05-09T02:39:03.287Z,99.99
2023-05-09T02:40:02.538Z,99.99
2023-05-09T02:41:01.644Z,99.99
2023-05-09T02:42:01.854Z,99.99
2023-05-09T02:43:01.945Z,99.99
2023-05-09T02:44:02.109Z,99.99
2023-05-09T02:45:02.356Z,99.99
2023-05-09T02:46:02.529Z,99.99
2023-05-09T02:47:01.539Z,99.99
2023-05-09T02:48:01.772Z,99.99
2023-05-09T02:49:01.883Z,99.99
2023-05-09T02:50:02.027Z,99.99
2023-05-09T02:51:02.201Z,99.99
2023-05-09T02:52:03.268Z,99.99
2023-05-09T02:53:01.515Z,99.99
2023-05-09T02:54:01.593Z,99.99
2023-05-09T02:55:01.744Z,99.99
2023-05-09T02:56:01.900Z,99.99
2023-05-09T02:57:02.010Z,99.99
2023-05-09T02:58:12.819Z,99.99
2023-05-09T02:59:02.330Z,99.99
2023-05-09T03:00:01.467Z,99.99
2023-05-09T03:01:01.646Z,99.99
2023-05-09T03:02:01.913Z,99.99
2023-05-09T03:03:01.993Z,99.99
2023-05-09T03:04:02.232Z,99.99
2023-05-09T03:05:03.290Z,99.99
2023-05-09T03:06:01.410Z,99.99
2023-05-09T03:07:01.577Z,99.99
2023-05-09T03:08:01.777Z,99.99
2023-05-09T03:09:01.898Z,99.99
2023-05-09T03:10:03.347Z,99.99
2023-05-09T03:11:01.218Z,99.99
2023-05-09T03:12:02.332Z,99.99
2023-05-09T03:13:01.668Z,99.99
2023-05-09T03:14:01.661Z,99.99
2023-05-09T03:15:01.834Z,99.99
2023-05-09T03:16:02.094Z,99.99
2023-05-09T03:17:01.187Z,99.99
2023-05-09T03:18:01.341Z,99.99
2023-05-09T03:19:01.483Z,99.99
2023-05-09T03:20:04.170Z,99.99
2023-05-09T03:21:01.867Z,99.99
2023-05-09T03:22:02.009Z,99.99
2023-05-09T03:23:01.129Z,99.99
2023-05-09T03:24:01.328Z,99.99
2023-05-09T03:25:01.494Z,99.99
2023-05-09T03:26:01.659Z,99.99
2023-05-09T03:27:01.839Z,99.99
2023-05-09T03:28:01.104Z,99.99
2023-05-09T03:29:01.173Z,99.99
2023-05-09T03:30:01.355Z,99.99
2023-05-09T03:31:01.571Z,99.99
2023-05-09T03:32:01.726Z,99.99
2023-05-09T03:33:01.959Z,99.99
2023-05-09T03:34:00.984Z,99.99
2023-05-09T03:35:01.160Z,99.99
2023-05-09T03:36:01.319Z,99.99
2023-05-09T03:37:01.421Z,99.99
2023-05-09T03:38:01.702Z,99.99
2023-05-09T03:39:01.833Z,99.99
2023-05-09T03:40:00.960Z,99.99
2023-05-09T03:41:01.052Z,99.99
2023-05-09T03:42:02.244Z,99.99
2023-05-09T03:43:01.408Z,99.99
2023-05-09T03:44:01.577Z,99.99
2023-05-09T03:45:01.816Z,99.99
2023-05-09T03:46:00.892Z,99.99
2023-05-09T03:47:01.139Z,99.99
2023-05-09T03:48:01.188Z,99.99
2023-05-09T03:49:01.435Z,99.99
2023-05-09T03:50:01.491Z,99.99
2023-05-09T03:51:01.673Z,99.99
2023-05-09T03:52:00.751Z,99.99
2023-05-09T03:53:00.927Z,99.99
2023-05-09T03:54:01.072Z,99.99
2023-05-09T03:55:01.207Z,99.99
2023-05-09T03:56:01.414Z,99.99
2023-05-09T03:57:01.624Z,99.99
2023-05-09T03:58:00.720Z,99.99
2023-05-09T03:59:00.922Z,99.99
2023-05-09T04:00:01.011Z,99.99
2023-05-09T04:01:01.178Z,99.99
2023-05-09T04:02:01.385Z,99.99
2023-05-09T04:03:01.643Z,99.99
2023-05-09T04:04:00.701Z,99.99
2023-05-09T04:05:00.818Z,99.99
2023-05-09T04:06:01.001Z,99.99
2023-05-09T04:07:01.145Z,99.99
2023-05-09T04:08:01.308Z,99.99
2023-05-09T04:09:00.487Z,99.99
2023-05-09T04:10:00.607Z,99.99
2023-05-09T04:11:00.717Z,99.99
2023-05-09T04:12:00.871Z,99.99
2023-05-09T04:13:01.052Z,99.99
2023-05-09T04:14:01.201Z,99.99
2023-05-09T04:15:01.332Z,99.99
2023-05-09T04:16:00.517Z,99.99
2023-05-09T04:17:00.716Z,99.99
2023-05-09T04:18:00.829Z,99.99
2023-05-09T04:19:00.942Z,99.99
2023-05-09T04:20:01.176Z,99.99
2023-05-09T04:21:01.264Z,99.99
2023-05-09T04:22:00.371Z,99.99
2023-05-09T04:23:00.516Z,99.99
2023-05-09T04:24:00.717Z,99.99
2023-05-09T04:25:00.816Z,99.99
2023-05-09T04:26:01.010Z,99.99
2023-05-09T04:27:01.087Z,99.99
2023-05-09T04:28:00.208Z,99.99
2023-05-09T04:29:00.352Z,99.99
2023-05-09T04:30:00.508Z,99.99
2023-05-09T04:31:00.830Z,99.99
2023-05-09T04:32:00.886Z,99.99
2023-05-09T04:33:01.044Z,99.99
2023-05-09T04:34:01.072Z,99.99
2023-05-09T04:35:00.204Z,99.99
2023-05-09T04:36:00.351Z,99.99
2023-05-09T04:37:00.530Z,99.99
2023-05-09T04:38:00.793Z,99.99
2023-05-09T04:39:00.863Z,99.99
2023-05-09T04:40:01.008Z,99.99
2023-05-09T04:41:00.170Z,99.99
2023-05-09T04:42:00.321Z,99.99
2023-05-09T04:43:00.501Z,99.99
2023-05-09T04:44:00.721Z,99.99
2023-05-09T04:45:00.806Z,99.99
2023-05-09T04:45:59.913Z,99.99
2023-05-09T04:47:00.141Z,99.99
2023-05-09T04:48:00.306Z,99.99
2023-05-09T04:49:00.443Z,99.99
2023-05-09T04:50:00.637Z,99.99
2023-05-09T04:51:00.758Z,99.99
2023-05-09T04:51:59.939Z,99.99
2023-05-09T04:53:00.147Z,99.99
2023-05-09T04:54:00.273Z,99.99
2023-05-09T04:55:01.376Z,99.99
2023-05-09T04:56:00.706Z,99.99
2023-05-09T04:57:13.700Z,99.99
2023-05-09T04:58:00.895Z,99.99
2023-05-09T04:59:00.120Z,99.99
2023-05-09T05:00:00.288Z,99.99
2023-05-09T05:01:00.394Z,99.99
2023-05-09T05:02:00.591Z,99.99
2023-05-09T05:03:00.756Z,99.99
2023-05-09T05:03:59.880Z,99.99
2023-05-09T05:05:10.844Z,99.99
2023-05-09T05:06:01.172Z,99.99
2023-05-09T05:07:01.290Z,99.99
2023-05-09T05:08:00.574Z,99.99
2023-05-09T05:09:00.642Z,99.99
2023-05-09T05:09:59.733Z,99.99
2023-05-09T05:10:59.901Z,99.99
2023-05-09T05:12:02.965Z,99.99
2023-05-09T05:13:01.296Z,99.99
2023-05-09T05:14:00.742Z,99.99
2023-05-09T05:15:01.560Z,99.99
2023-05-09T05:16:00.738Z,99.99
2023-05-09T05:16:59.887Z,99.99
2023-05-09T05:18:00.143Z,99.99
2023-05-09T05:19:00.271Z,99.99
2023-05-09T05:20:01.153Z,99.99
2023-05-09T05:21:00.532Z,99.99
2023-05-09T05:22:00.700Z,99.99
2023-05-09T05:23:00.864Z,99.99
2023-05-09T05:24:01.040Z,99.99
2023-05-09T05:25:00.240Z,99.99
2023-05-09T05:26:00.440Z,99.99
2023-05-09T05:27:00.448Z,99.99
2023-05-09T05:27:59.652Z,99.99
2023-05-09T05:29:00.788Z,99.99
2023-05-09T05:30:00.952Z,99.99
2023-05-09T05:31:00.167Z,99.99
2023-05-09T05:32:00.546Z,99.99
2023-05-09T05:32:59.469Z,99.99
2023-05-09T05:34:00.531Z,99.99
2023-05-09T05:34:59.708Z,99.99
2023-05-09T05:35:59.873Z,99.99
2023-05-09T05:37:01.041Z,99.99
2023-05-09T05:38:00.304Z,99.99
2023-05-09T05:38:59.363Z,99.99
2023-05-09T05:40:00.477Z,99.99
2023-05-09T05:40:59.709Z,99.99
2023-05-09T05:41:59.909Z,99.99
2023-05-09T05:43:00.051Z,99.99
2023-05-09T05:44:00.262Z,99.99
2023-05-09T05:45:00.281Z,99.99
2023-05-09T05:46:00.437Z,99.99
2023-05-09T05:47:00.617Z,99.99
2023-05-09T05:47:59.911Z,99.99
2023-05-09T05:49:00.902Z,99.99
2023-05-09T05:50:00.426Z,99.99
2023-05-09T05:51:00.177Z,99.99
2023-05-09T05:51:59.389Z,99.99
2023-05-09T05:53:00.528Z,99.99
2023-05-09T05:54:00.733Z,99.99
2023-05-09T05:54:59.883Z,99.99
2023-05-09T05:55:59.072Z,99.99
2023-05-09T05:57:00.181Z,99.99
2023-05-09T05:57:59.323Z,99.99
2023-05-09T05:59:00.418Z,99.99
2023-05-09T05:59:59.613Z,99.99
2023-05-09T06:00:59.794Z,99.99
2023-05-09T06:02:00.889Z,99.99
2023-05-09T06:03:00.015Z,99.99
2023-05-09T06:04:00.305Z,99.99
2023-05-09T06:05:00.294Z,99.99
2023-05-09T06:06:00.453Z,99.99
2023-05-09T06:06:59.739Z,99.99
2023-05-09T06:08:00.789Z,99.99
2023-05-09T06:08:59.044Z,99.99
2023-05-09T06:10:00.080Z,99.99
2023-05-09T06:11:00.261Z,99.99
2023-05-09T06:11:59.433Z,99.99
2023-05-09T06:12:59.798Z,99.99
2023-05-09T06:13:59.742Z,99.99
2023-05-09T06:14:58.890Z,99.99
2023-05-09T06:16:07.846Z,99.99
2023-05-09T06:17:00.203Z,99.99
2023-05-09T06:18:00.355Z,99.90
2023-05-09T06:18:59.574Z,99.99
2023-05-09T06:20:00.627Z,99.99
2023-05-09T06:20:59.757Z,99.85
2023-05-09T06:21:59.907Z,99.90
2023-05-09T06:22:59.141Z,99.75
2023-05-09T06:24:06.381Z,99.85
2023-05-09T06:25:00.529Z,99.85
2023-05-09T06:26:00.520Z,99.65
2023-05-09T06:26:58.706Z,99.65
2023-05-09T06:27:58.938Z,99.55
2023-05-09T06:28:59.019Z,99.65
2023-05-09T06:29:59.210Z,99.55
2023-05-09T06:30:59.508Z,99.44
2023-05-09T06:31:59.794Z,99.44
2023-05-09T06:33:00.731Z,99.35
2023-05-09T06:33:58.867Z,99.44
2023-05-09T06:34:58.984Z,99.44
2023-05-09T06:35:59.154Z,99.04
2023-05-09T06:36:59.444Z,98.69
2023-05-09T06:37:59.464Z,98.59
2023-05-09T06:38:58.567Z,98.49
2023-05-09T06:39:58.740Z,98.39
2023-05-09T06:40:58.868Z,98.39
2023-05-09T06:41:58.993Z,98.39
2023-05-09T06:42:59.199Z,98.39
2023-05-09T06:44:00.308Z,98.39
2023-05-09T06:44:59.492Z,98.18
2023-05-09T06:45:59.619Z,98.08
2023-05-09T06:46:58.801Z,97.78
2023-05-09T06:47:59.920Z,97.67
2023-05-09T06:48:59.183Z,97.98
2023-05-09T06:50:00.224Z,97.78
2023-05-09T06:50:59.366Z,97.88
2023-05-09T06:51:59.507Z,97.94
2023-05-09T06:52:58.755Z,98.03
2023-05-09T06:53:58.916Z,97.53
2023-05-09T06:54:59.111Z,97.33
2023-05-09T06:55:59.222Z,96.92
2023-05-09T06:56:59.306Z,96.82
2023-05-09T06:57:59.442Z,97.02
2023-05-09T06:58:58.653Z,96.72
2023-05-09T06:59:58.813Z,96.92
2023-05-09T07:00:58.976Z,97.18
2023-05-09T07:02:00.105Z,97.08
2023-05-09T07:02:58.243Z,96.88
2023-05-09T07:03:58.330Z,96.57
2023-05-09T07:04:58.505Z,96.78
2023-05-09T07:05:58.624Z,96.78
2023-05-09T07:06:58.804Z,96.67
2023-05-09T07:07:59.871Z,96.78
2023-05-09T07:09:00.013Z,96.88
2023-05-09T07:10:10.669Z,96.93
2023-05-09T07:10:59.322Z,96.42
2023-05-09T07:11:59.480Z,96.42
2023-05-09T07:12:58.666Z,96.53
2023-05-09T07:13:59.721Z,95.82
2023-05-09T07:14:58.848Z,95.92
2023-05-09T07:15:59.073Z,95.82
2023-05-09T07:17:13.786Z,95.82
2023-05-09T07:17:59.277Z,95.92
2023-05-09T07:18:58.391Z,95.42
2023-05-09T07:19:58.561Z,95.51
2023-05-09T07:20:59.643Z,95.21
2023-05-09T07:21:59.794Z,95.07
2023-05-09T07:22:58.879Z,95.07
2023-05-09T07:23:58.183Z,95.37
2023-05-09T07:24:58.168Z,94.96
2023-05-09T07:25:58.309Z,95.17
2023-05-09T07:26:59.397Z,95.27
2023-05-09T07:27:58.627Z,94.76
2023-05-09T07:28:58.793Z,94.26
2023-05-09T07:29:57.853Z,94.06
2023-05-09T07:30:58.899Z,94.01
2023-05-09T07:31:59.085Z,94.11
2023-05-09T07:32:59.269Z,93.81
2023-05-09T07:33:59.320Z,93.71
2023-05-09T07:34:58.531Z,93.81
2023-05-09T07:35:59.619Z,93.40
2023-05-09T07:36:58.832Z,93.46
2023-05-09T07:37:57.813Z,93.16
2023-05-09T07:38:58.903Z,92.14
2023-05-09T07:39:58.140Z,91.94
2023-05-09T07:40:59.266Z,92.25
2023-05-09T07:41:59.309Z,92.45
2023-05-09T07:42:58.525Z,92.25
2023-05-09T07:43:58.633Z,91.54
2023-05-09T07:44:57.717Z,91.09
2023-05-09T07:45:58.850Z,91.39
2023-05-09T07:46:57.999Z,89.88
2023-05-09T07:47:58.143Z,90.79
2023-05-09T07:48:58.240Z,91.19
2023-05-09T07:49:59.327Z,89.58
2023-05-09T07:50:59.475Z,90.08
2023-05-09T07:51:58.576Z,91.25
2023-05-09T07:52:57.780Z,91.76
2023-05-09T07:53:58.878Z,88.83
2023-05-09T07:54:58.995Z,89.13
2023-05-09T07:55:59.150Z,89.54
2023-05-09T07:56:59.260Z,89.54
2023-05-09T07:58:00.147Z,89.84
2023-05-09T07:58:58.474Z,88.63
2023-05-09T07:59:57.685Z,89.74
2023-05-09T08:00:58.751Z,89.84
2023-05-09T08:01:58.879Z,89.90
2023-05-09T08:02:58.183Z,90.10
2023-05-09T08:03:58.392Z,88.48
2023-05-09T08:04:59.307Z,86.81
2023-05-09T08:05:58.406Z,86.57
2023-05-09T08:06:58.605Z,87.48
2023-05-09T08:07:58.732Z,87.88
2023-05-09T08:08:57.911Z,86.07
2023-05-09T08:09:58.115Z,86.00
2023-05-09T08:10:58.232Z,86.30
2023-05-09T08:11:58.378Z,87.92
2023-05-09T08:12:57.524Z,88.68
2023-05-09T08:13:57.677Z,87.78
2023-05-09T08:14:58.775Z,87.68
2023-05-09T08:15:58.210Z,86.87
2023-05-09T08:16:59.105Z,87.98
2023-05-09T08:17:58.296Z,87.58
2023-05-09T08:18:58.449Z,86.67
2023-05-09T08:19:58.591Z,87.38
2023-05-09T08:20:58.758Z,87.03
2023-05-09T08:21:58.967Z,87.03
2023-05-09T08:22:59.071Z,85.02
2023-05-09T08:23:58.202Z,84.65
2023-05-09T08:24:57.417Z,85.52
2023-05-09T08:25:57.537Z,85.02
2023-05-09T08:26:57.746Z,82.84
2023-05-09T08:27:57.924Z,82.73
2023-05-09T08:28:58.982Z,83.34
2023-05-09T08:29:57.127Z,83.44
2023-05-09T08:30:57.301Z,80.92
2023-05-09T08:31:57.462Z,81.89
2023-05-09T08:32:58.622Z,81.99
2023-05-09T08:33:58.779Z,83.50
2023-05-09T08:34:57.905Z,83.80
2023-05-09T08:35:58.052Z,85.11
2023-05-09T08:36:58.168Z,84.91
2023-05-09T08:37:58.324Z,83.76
2023-05-09T08:38:58.501Z,82.45
2023-05-09T08:39:57.845Z,82.96
2023-05-09T08:40:58.826Z,83.36
2023-05-09T08:41:58.094Z,83.87
2023-05-09T08:42:58.126Z,83.36
2023-05-09T08:43:58.285Z,83.26
2023-05-09T08:44:57.513Z,81.35
2023-05-09T08:45:57.744Z,81.35
2023-05-09T08:46:56.879Z,81.95
2023-05-09T08:47:57.968Z,83.46
2023-05-09T08:48:57.099Z,82.96
2023-05-09T08:49:57.267Z,82.25
2023-05-09T08:50:57.444Z,81.15
2023-05-09T08:51:57.615Z,80.64
2023-05-09T08:52:58.705Z,80.33
2023-05-09T08:53:57.794Z,81.55
2023-05-09T08:54:57.963Z,80.33
2023-05-09T08:55:58.221Z,81.24
2023-05-09T08:56:58.254Z,82.76
2023-05-09T08:57:57.500Z,81.75
2023-05-09T08:58:58.584Z,82.76
2023-05-09T08:59:56.725Z,82.31
2023-05-09T09:00:56.907Z,79.83
2023-05-09T09:01:57.075Z,80.60
2023-05-09T09:02:58.225Z,81.81
2023-05-09T09:03:57.494Z,82.51
2023-05-09T09:04:57.565Z,82.11
2023-05-09T09:05:57.635Z,81.30
2023-05-09T09:06:56.814Z,82.42
2023-05-09T09:07:57.930Z,81.61
2023-05-09T09:08:58.081Z,81.91
2023-05-09T09:09:57.356Z,80.10
2023-05-09T09:10:56.443Z,80.80
2023-05-09T09:11:56.606Z,80.00
2023-05-09T09:12:57.770Z,80.90
2023-05-09T09:13:56.928Z,80.90
2023-05-09T09:14:58.052Z,80.70
2023-05-09T09:15:58.318Z,80.10
2023-05-09T09:16:58.347Z,80.80
2023-05-09T09:17:56.482Z,80.30
2023-05-09T09:18:58.888Z,80.20
2023-05-09T09:19:56.726Z,79.90
2023-05-09T09:20:57.897Z,80.00
2023-05-09T09:21:57.249Z,79.60
2023-05-09T09:22:58.074Z,79.49
2023-05-09T09:23:58.208Z,80.06
2023-05-09T09:24:56.322Z,80.06
2023-05-09T09:25:59.652Z,78.96
2023-05-09T09:26:56.594Z,78.96
2023-05-09T09:27:57.044Z,80.66
2023-05-09T09:29:17.836Z,80.06
2023-05-09T09:29:57.053Z,78.65
2023-05-09T09:30:57.081Z,79.66
2023-05-09T09:31:56.224Z,78.81
2023-05-09T09:32:56.348Z,79.11
2023-05-09T09:34:17.483Z,78.31
2023-05-09T09:34:56.534Z,77.40
2023-05-09T09:35:57.768Z,77.61
2023-05-09T09:36:56.777Z,78.11
2023-05-09T09:37:59.744Z,78.51
2023-05-09T09:38:58.028Z,78.51
2023-05-09T09:39:56.161Z,77.91
2023-05-09T09:40:57.223Z,77.00
2023-05-09T09:41:56.350Z,77.61
2023-05-09T09:42:57.457Z,77.11
2023-05-09T09:43:58.708Z,78.61
2023-05-09T09:44:57.806Z,78.17
2023-05-09T09:45:57.020Z,78.27
2023-05-09T09:46:57.955Z,79.44
2023-05-09T09:47:56.152Z,77.83
2023-05-09T09:48:56.188Z,78.03
2023-05-09T09:49:56.290Z,76.93
2023-05-09T09:50:57.428Z,79.44
2023-05-09T09:51:57.528Z,80.45
2023-05-09T09:52:57.679Z,79.14
2023-05-09T09:53:57.788Z,79.64
2023-05-09T09:54:56.906Z,79.94
2023-05-09T09:55:57.106Z,80.45
2023-05-09T09:56:57.332Z,79.14
2023-05-09T09:57:56.322Z,79.64
2023-05-09T09:58:57.418Z,78.94
2023-05-09T09:59:57.600Z,79.44
2023-05-09T10:00:56.692Z,79.94
2023-05-09T10:01:56.860Z,80.45
2023-05-09T10:02:55.834Z,79.44
2023-05-09T10:03:56.037Z,80.25
2023-05-09T10:04:57.021Z,79.24
2023-05-09T10:05:57.157Z,78.14
2023-05-09T10:06:56.340Z,79.04
2023-05-09T10:07:56.561Z,80.55
2023-05-09T10:08:56.556Z,79.54
2023-05-09T10:09:56.640Z,79.14
2023-05-09T10:10:55.749Z,80.15
2023-05-09T10:11:55.888Z,79.91
2023-05-09T10:12:56.045Z,80.81
2023-05-09T10:13:57.062Z,76.39
2023-05-09T10:14:57.213Z,74.48
2023-05-09T10:15:56.389Z,77.00
2023-05-09T10:16:57.761Z,76.69
2023-05-09T10:17:57.730Z,75.09
2023-05-09T10:18:56.699Z,74.78
2023-05-09T10:19:55.815Z,76.25
2023-05-09T10:20:55.887Z,74.35
2023-05-09T10:21:55.949Z,75.15
2023-05-09T10:22:56.122Z,74.04
2023-05-09T10:23:56.216Z,73.68
2023-05-09T10:24:57.698Z,73.47
2023-05-09T10:25:56.439Z,76.69
2023-05-09T10:26:57.553Z,77.00
2023-05-09T10:27:55.616Z,75.85
2023-05-09T10:28:55.757Z,73.84
2023-05-09T10:29:55.849Z,73.64
2023-05-09T10:30:56.103Z,73.94
2023-05-09T10:31:57.050Z,74.04
2023-05-09T10:32:57.205Z,74.21
2023-05-09T10:33:56.501Z,73.61
2023-05-09T10:34:56.373Z,71.80
2023-05-09T10:35:56.455Z,72.30
2023-05-09T10:36:56.621Z,71.90
2023-05-09T10:37:55.724Z,73.81
2023-05-09T10:38:55.806Z,72.30
2023-05-09T10:39:56.882Z,73.00
2023-05-09T10:40:57.042Z,72.50
2023-05-09T10:41:56.154Z,74.81
2023-05-09T10:42:56.293Z,73.27
2023-05-09T10:43:55.374Z,72.77
2023-05-09T10:44:56.418Z,71.60
2023-05-09T10:45:56.720Z,73.87
2023-05-09T10:46:56.668Z,71.97
2023-05-09T10:47:56.943Z,73.27
2023-05-09T10:48:55.930Z,73.77
2023-05-09T10:49:56.037Z,72.47
2023-05-09T10:50:57.194Z,72.37
2023-05-09T10:51:55.208Z,72.17
2023-05-09T10:52:55.302Z,73.44
2023-05-09T10:53:56.380Z,73.94
2023-05-09T10:54:56.478Z,74.54
2023-05-09T10:55:56.746Z,74.74
2023-05-09T10:56:55.730Z,73.90
2023-05-09T10:57:55.834Z,72.20
2023-05-09T10:58:55.915Z,74.10
2023-05-09T10:59:56.987Z,72.70
2023-05-09T11:00:57.036Z,73.20
2023-05-09T11:01:55.181Z,74.01
2023-05-09T11:02:55.377Z,73.60
2023-05-09T11:03:56.349Z,74.20
2023-05-09T11:04:56.926Z,73.36
2023-05-09T11:05:56.525Z,72.47
2023-05-09T11:06:57.122Z,72.66
2023-05-09T11:07:56.714Z,73.86
2023-05-09T11:08:56.857Z,73.16
2023-05-09T11:09:54.948Z,72.97
2023-05-09T11:10:55.549Z,71.66
2023-05-09T11:11:55.141Z,73.83
2023-05-09T11:12:57.551Z,71.26
2023-05-09T11:13:55.406Z,70.56
2023-05-09T11:14:56.435Z,74.37
2023-05-09T11:15:55.598Z,70.96
2023-05-09T11:16:56.618Z,72.06
2023-05-09T11:17:56.792Z,72.36
2023-05-09T11:18:54.790Z,75.07
2023-05-09T11:19:54.852Z,75.84
2023-05-09T11:20:54.945Z,73.13
2023-05-09T11:21:55.121Z,72.23
2023-05-09T11:22:55.171Z,73.00
2023-05-09T11:23:55.409Z,72.80
2023-05-09T11:24:55.273Z,73.39
2023-05-09T11:25:55.347Z,72.69
2023-05-09T11:26:55.809Z,71.69
2023-05-09T11:27:55.547Z,70.39
2023-05-09T11:28:55.629Z,71.50
2023-05-09T11:29:54.666Z,72.03
2023-05-09T11:30:54.940Z,70.83
2023-05-09T11:31:54.914Z,71.23
2023-05-09T11:32:55.123Z,72.97
2023-05-09T11:33:55.105Z,73.47
2023-05-09T11:34:55.181Z,74.27
2023-05-09T11:35:55.254Z,76.07
2023-05-09T11:36:56.345Z,72.97
2023-05-09T11:37:56.503Z,72.66
2023-05-09T11:38:54.536Z,74.07
2023-05-09T11:39:54.736Z,73.86
2023-05-09T11:40:54.726Z,74.67
2023-05-09T11:41:54.832Z,74.17
2023-05-09T11:42:57.786Z,75.77
2023-05-09T11:43:55.054Z,75.07
2023-05-09T11:44:55.131Z,75.81
2023-05-09T11:45:55.204Z,75.21
2023-05-09T11:46:55.320Z,74.80
2023-05-09T11:47:54.451Z,73.97
2023-05-09T11:48:55.524Z,74.10
2023-05-09T11:49:54.632Z,74.60
2023-05-09T11:50:54.662Z,74.37
2023-05-09T11:51:54.755Z,74.77
2023-05-09T11:52:54.839Z,75.67
2023-05-09T11:53:54.907Z,75.37
2023-05-09T11:54:55.016Z,76.07
2023-05-09T11:55:55.090Z,73.86
2023-05-09T11:56:55.165Z,75.87
2023-05-09T11:57:54.403Z,74.40
2023-05-09T11:58:55.350Z,74.60
2023-05-09T11:59:55.599Z,74.01
2023-05-09T12:00:54.823Z,74.60
2023-05-09T12:01:54.753Z,76.21
2023-05-09T12:02:54.953Z,75.21
2023-05-09T12:03:55.035Z,75.31
2023-05-09T12:04:55.076Z,73.90
2023-05-09T12:05:55.174Z,75.10
2023-05-09T12:06:54.255Z,75.71
2023-05-09T12:07:54.393Z,74.90
2023-05-09T12:08:54.440Z,73.60
2023-05-09T12:09:54.514Z,73.80
2023-05-09T12:10:54.640Z,73.90
2023-05-09T12:11:55.440Z,72.09
2023-05-09T12:12:54.879Z,73.20
2023-05-09T12:13:55.907Z,73.20
2023-05-09T12:14:55.048Z,73.20
2023-05-09T12:15:54.110Z,72.86
2023-05-09T12:16:54.207Z,74.17
2023-05-09T12:17:54.499Z,73.97
2023-05-09T12:18:54.427Z,72.36
2023-05-09T12:19:54.506Z,73.67
2023-05-09T12:20:54.579Z,72.97
2023-05-09T12:21:54.675Z,71.39
2023-05-09T12:22:54.768Z,72.30
2023-05-09T12:23:54.864Z,73.80
2023-05-09T12:24:55.113Z,73.00
2023-05-09T12:25:54.023Z,71.80
2023-05-09T12:26:54.105Z,75.21
2023-05-09T12:27:54.185Z,73.07
2023-05-09T12:28:55.342Z,73.07
2023-05-09T12:29:55.374Z,72.97
2023-05-09T12:30:55.509Z,73.63
2023-05-09T12:31:54.598Z,74.03
2023-05-09T12:32:54.654Z,69.42
2023-05-09T12:33:55.066Z,70.32
2023-05-09T12:34:54.788Z,72.80
2023-05-09T12:35:54.904Z,71.39
2023-05-09T12:36:55.043Z,68.79
2023-05-09T12:37:54.124Z,67.29
2023-05-09T12:38:54.246Z,69.39
2023-05-09T12:39:54.363Z,69.99
2023-05-09T12:40:54.499Z,72.09
2023-05-09T12:42:01.640Z,71.00
2023-05-09T12:42:55.609Z,71.69
2023-05-09T12:43:54.940Z,68.29
2023-05-09T12:44:53.743Z,69.49
2023-05-09T12:45:53.874Z,71.09
2023-05-09T12:46:54.923Z,69.59
2023-05-09T12:47:55.038Z,69.32
2023-05-09T12:48:55.185Z,67.92
2023-05-09T12:49:54.188Z,67.02
2023-05-09T12:50:55.243Z,67.99
2023-05-09T12:51:55.318Z,69.39